Time;durP1;ratioP1;P1;durP2;ratioP2;P2;SDS_P1;SDS_P2;PMS_P1;PMS_P2;Temp;Humidity;BMP_temperature;BMP_pressure;BME280_temperature;BME280_humidity;BME280_pressure;Samples;Min_cycle;Max_cycle;Signal;HPM_P1;HPM_P2
2021/04/22 00:00:52;;;;;;;20.20;14.80;;;12.40;65.40;;;;;;5046385;28;21125;-49
2021/04/22 00:03:18;;;;;;;19.80;13.97;;;12.40;65.30;;;;;;5046118;28;20466;-49
2021/04/22 00:05:44;;;;;;;19.23;15.00;;;12.40;65.30;;;;;;5046947;28;20804;-49
2021/04/22 00:08:11;;;;;;;21.13;13.73;;;12.30;65.30;;;;;;5047338;28;20496;-49
2021/04/22 00:10:44;;;;;;;17.47;13.57;;;12.30;65.30;;;;;;5046084;28;20521;-51
2021/04/22 00:13:14;;;;;;;18.60;15.10;;;12.30;65.80;;;;;;5045775;28;20462;-50
2021/04/22 00:15:41;;;;;;;22.13;15.67;;;12.30;65.90;;;;;;5045678;28;20840;-50
2021/04/22 00:18:10;;;;;;;17.70;13.67;;;12.20;65.70;;;;;;5047988;28;20869;-50
2021/04/22 00:20:37;;;;;;;21.53;14.93;;;12.10;65.80;;;;;;5048879;28;20449;-49
2021/04/22 00:23:08;;;;;;;18.00;13.70;;;12.10;66.10;;;;;;5044928;28;20494;-50
2021/04/22 00:25:34;;;;;;;17.83;13.93;;;12.10;66.00;;;;;;5058571;28;20459;-49
2021/04/22 00:28:05;;;;;;;19.57;14.10;;;12.00;66.10;;;;;;5045108;28;20493;-51
2021/04/22 00:30:33;;;;;;;19.20;14.33;;;12.00;66.30;;;;;;5044416;28;20915;-49
2021/04/22 00:33:07;;;;;;;20.83;14.80;;;12.00;66.50;;;;;;5047518;28;20950;-49
2021/04/22 00:35:34;;;;;;;16.07;12.93;;;12.00;66.40;;;;;;5045982;28;21011;-49
2021/04/22 00:38:02;;;;;;;15.90;14.03;;;11.90;66.50;;;;;;5048146;28;20488;-50
2021/04/22 00:40:29;;;;;;;13.37;11.40;;;11.90;66.90;;;;;;5042787;28;20462;-49
2021/04/22 00:42:59;;;;;;;21.77;12.30;;;11.90;66.90;;;;;;5048434;28;20470;-49
2021/04/22 00:45:26;;;;;;;18.00;12.17;;;11.90;66.70;;;;;;5049274;28;20465;-50
2021/04/22 00:47:52;;;;;;;15.97;12.93;;;11.90;66.50;;;;;;5065565;28;20478;-49
2021/04/22 00:50:28;;;;;;;16.10;11.57;;;11.80;66.70;;;;;;5048946;28;20485;-49
2021/04/22 00:52:59;;;;;;;15.20;11.67;;;11.80;66.80;;;;;;5046745;28;20473;-49
2021/04/22 00:55:27;;;;;;;16.70;11.60;;;11.80;66.90;;;;;;5048742;28;20826;-49
2021/04/22 00:57:54;;;;;;;12.30;10.70;;;11.80;66.90;;;;;;5048353;28;20484;-49
2021/04/22 01:00:30;;;;;;;22.60;13.30;;;11.70;67.00;;;;;;5049689;28;20474;-49
2021/04/22 01:02:57;;;;;;;14.60;12.10;;;11.80;66.90;;;;;;5048264;28;20462;-49
2021/04/22 01:05:29;;;;;;;13.93;11.00;;;11.70;67.10;;;;;;5051014;28;20818;-50
2021/04/22 01:07:55;;;;;;;17.27;12.40;;;11.70;67.20;;;;;;5051059;28;20490;-48
2021/04/22 01:10:22;;;;;;;17.70;12.10;;;11.60;67.30;;;;;;5048425;28;20458;-50
2021/04/22 01:12:49;;;;;;;18.03;11.10;;;11.60;67.40;;;;;;5031311;28;20462;-49
2021/04/22 01:15:19;;;;;;;14.03;11.60;;;11.60;67.80;;;;;;5023302;28;20466;-50
2021/04/22 01:17:45;;;;;;;16.80;10.30;;;11.60;67.70;;;;;;5048816;28;20471;-50
2021/04/22 01:20:23;;;;;;;20.80;10.27;;;11.60;67.50;;;;;;5050060;28;20490;-51
2021/04/22 01:22:51;;;;;;;17.33;10.50;;;11.50;67.60;;;;;;5047974;28;20485;-50
2021/04/22 01:25:21;;;;;;;13.00;10.53;;;11.50;67.40;;;;;;5047465;28;20464;-49
2021/04/22 01:27:48;;;;;;;10.97;9.77;;;11.50;67.50;;;;;;5046988;28;20482;-49
2021/04/22 01:30:21;;;;;;;12.60;9.13;;;11.50;67.40;;;;;;5063881;28;20459;-49
2021/04/22 01:32:50;;;;;;;13.43;10.17;;;11.40;67.30;;;;;;5063065;28;20458;-49
2021/04/22 01:35:20;;;;;;;13.77;8.80;;;11.40;66.90;;;;;;5049170;28;20450;-49
2021/04/22 01:37:48;;;;;;;11.57;9.43;;;11.40;67.10;;;;;;5048769;28;20455;-49
2021/04/22 01:40:16;;;;;;;13.27;9.47;;;11.40;67.30;;;;;;5028297;28;20469;-50
2021/04/22 01:42:42;;;;;;;13.03;8.37;;;11.30;67.30;;;;;;5048766;28;21106;-49
2021/04/22 01:45:10;;;;;;;13.10;9.03;;;11.30;67.40;;;;;;5047581;28;20459;-49
2021/04/22 01:47:37;;;;;;;13.93;8.90;;;11.30;67.40;;;;;;5047331;28;20833;-50
2021/04/22 01:50:08;;;;;;;15.63;9.80;;;11.30;67.30;;;;;;5048456;28;20983;-50
2021/04/22 01:52:34;;;;;;;14.47;8.50;;;11.20;67.30;;;;;;5062910;28;20457;-49
2021/04/22 01:55:01;;;;;;;11.10;8.30;;;11.20;67.30;;;;;;5046354;28;20450;-50
2021/04/22 01:57:27;;;;;;;12.83;8.23;;;11.20;67.30;;;;;;5047561;28;20469;-49
2021/04/22 01:59:53;;;;;;;13.23;8.63;;;11.20;67.20;;;;;;5047660;28;20463;-50
2021/04/22 02:02:19;;;;;;;11.60;8.63;;;11.20;67.50;;;;;;5047443;28;20466;-49
2021/04/22 02:04:46;;;;;;;13.23;8.33;;;11.20;67.40;;;;;;5046244;28;20454;-49
2021/04/22 02:07:13;;;;;;;14.87;8.40;;;11.10;67.20;;;;;;5043900;28;20482;-50
2021/04/22 02:09:39;;;;;;;13.13;9.23;;;11.10;67.10;;;;;;5061529;28;20468;-50
2021/04/22 02:12:07;;;;;;;15.80;7.70;;;11.10;66.20;;;;;;5046347;28;20486;-50
2021/04/22 02:14:33;;;;;;;15.07;7.97;;;11.10;66.00;;;;;;5046734;28;20454;-50
2021/04/22 02:17:00;;;;;;;11.33;7.10;;;11.00;66.00;;;;;;5047472;28;20521;-49
2021/04/22 02:19:26;;;;;;;11.73;7.80;;;11.00;65.80;;;;;;5047605;28;20832;-49
2021/04/22 02:21:52;;;;;;;11.57;6.60;;;10.90;65.30;;;;;;5043307;28;20474;-49
2021/04/22 02:24:18;;;;;;;11.30;7.40;;;10.90;65.30;;;;;;5047939;28;20481;-49
2021/04/22 02:26:45;;;;;;;10.17;7.00;;;10.90;65.30;;;;;;5047560;28;20515;-50
2021/04/22 02:29:11;;;;;;;12.83;7.17;;;10.90;65.30;;;;;;5044095;28;20462;-50
2021/04/22 02:31:37;;;;;;;10.27;6.97;;;10.90;65.20;;;;;;5060905;28;20464;-50
2021/04/22 02:34:04;;;;;;;13.90;6.73;;;10.90;65.20;;;;;;5049405;28;20450;-50
2021/04/22 02:36:30;;;;;;;13.60;7.00;;;10.90;65.10;;;;;;5051009;28;20917;-49
2021/04/22 02:38:57;;;;;;;10.83;7.50;;;10.90;65.20;;;;;;5045903;28;20466;-49
2021/04/22 02:41:23;;;;;;;12.93;7.57;;;10.90;65.10;;;;;;5045502;28;20462;-49
2021/04/22 02:43:49;;;;;;;13.83;6.67;;;10.80;64.90;;;;;;5044174;28;20867;-50
2021/04/22 02:46:16;;;;;;;15.57;7.67;;;10.80;65.10;;;;;;5050383;28;20458;-48
2021/04/22 02:48:42;;;;;;;14.20;7.13;;;10.70;65.00;;;;;;5049799;28;20550;-48
2021/04/22 02:51:09;;;;;;;14.57;7.30;;;10.70;65.00;;;;;;5048195;28;20746;-48
2021/04/22 02:53:38;;;;;;;12.40;6.40;;;10.70;65.00;;;;;;5043784;28;20455;-48
2021/04/22 02:56:05;;;;;;;13.97;6.80;;;10.60;65.20;;;;;;5047760;28;20458;-48
2021/04/22 02:58:32;;;;;;;18.80;7.70;;;10.60;65.30;;;;;;5058923;28;20460;-48
2021/04/22 03:00:58;;;;;;;14.83;7.03;;;10.60;65.00;;;;;;5057689;28;20570;-48
2021/04/22 03:03:25;;;;;;;12.17;6.53;;;10.50;64.50;;;;;;5047397;28;20741;-48
2021/04/22 03:05:55;;;;;;;12.10;6.60;;;10.50;64.70;;;;;;5047355;28;20475;-48
2021/04/22 03:08:21;;;;;;;9.10;5.50;;;10.50;64.80;;;;;;5048817;28;20494;-48
2021/04/22 03:10:47;;;;;;;9.83;6.67;;;10.50;64.70;;;;;;5042990;28;20451;-48
2021/04/22 03:13:14;;;;;;;9.07;7.13;;;10.40;64.60;;;;;;5061252;28;20451;-48
2021/04/22 03:15:41;;;;;;;10.10;6.10;;;10.30;64.80;;;;;;5046178;28;20484;-48
2021/04/22 03:18:09;;;;;;;10.47;6.10;;;10.20;64.90;;;;;;5049196;28;20494;-48
2021/04/22 03:20:36;;;;;;;11.60;5.73;;;10.20;65.20;;;;;;5046266;28;20836;-48
2021/04/22 03:23:03;;;;;;;9.80;5.83;;;10.20;65.20;;;;;;5049088;28;20458;-48
2021/04/22 03:25:30;;;;;;;12.60;6.27;;;10.20;65.50;;;;;;5045249;28;20463;-48
2021/04/22 03:27:56;;;;;;;8.10;5.30;;;10.20;65.60;;;;;;5046687;28;20490;-48
2021/04/22 03:30:27;;;;;;;9.80;6.27;;;10.20;65.80;;;;;;5046648;28;20455;-49
2021/04/22 03:32:54;;;;;;;9.50;5.90;;;10.20;65.70;;;;;;5044820;28;20498;-49
2021/04/22 03:35:22;;;;;;;11.97;5.33;;;10.20;65.60;;;;;;5048234;28;20930;-49
2021/04/22 03:37:51;;;;;;;12.30;6.50;;;10.20;65.20;;;;;;5047768;28;20489;-49
2021/04/22 03:40:19;;;;;;;12.23;5.83;;;10.20;64.50;;;;;;5045593;28;20951;-49
2021/04/22 03:42:45;;;;;;;6.80;4.93;;;10.20;64.00;;;;;;5047561;28;20617;-49
2021/04/22 03:45:13;;;;;;;14.73;5.10;;;10.10;63.90;;;;;;5047008;28;20568;-49
2021/04/22 03:47:40;;;;;;;11.70;4.50;;;10.10;63.30;;;;;;5047579;28;20491;-49
2021/04/22 03:50:09;;;;;;;9.70;4.80;;;10.10;63.30;;;;;;5045331;28;20963;-48
2021/04/22 03:52:36;;;;;;;8.97;4.30;;;10.10;62.80;;;;;;5045779;28;20490;-49
2021/04/22 03:55:05;;;;;;;11.37;3.97;;;10.10;61.70;;;;;;5043822;28;20463;-48
2021/04/22 03:57:31;;;;;;;12.27;3.53;;;10.10;61.50;;;;;;5048076;28;20472;-48
2021/04/22 03:59:57;;;;;;;10.13;3.43;;;10.00;61.00;;;;;;5048323;28;20544;-49
2021/04/22 04:02:24;;;;;;;10.43;3.77;;;9.90;60.20;;;;;;5045839;28;20462;-49
2021/04/22 04:04:50;;;;;;;9.50;4.00;;;9.80;60.70;;;;;;5047134;28;20462;-49
2021/04/22 04:07:17;;;;;;;6.67;3.10;;;9.80;60.50;;;;;;5062171;28;20493;-49
2021/04/22 04:09:43;;;;;;;9.77;3.33;;;9.80;60.20;;;;;;5061811;28;20817;-49
2021/04/22 04:12:10;;;;;;;10.20;2.93;;;9.70;60.40;;;;;;5044070;28;20682;-48
2021/04/22 04:14:37;;;;;;;4.90;3.10;;;9.70;60.20;;;;;;5044099;28;20457;-49
2021/04/22 04:17:04;;;;;;;10.37;3.70;;;9.60;60.10;;;;;;5048257;28;20486;-48
2021/04/22 04:19:30;;;;;;;5.27;3.30;;;9.60;60.00;;;;;;5048002;28;20455;-48
2021/04/22 04:21:57;;;;;;;6.07;2.73;;;9.50;60.10;;;;;;5048959;28;20454;-48
2021/04/22 04:24:23;;;;;;;4.90;3.53;;;9.50;60.30;;;;;;5047979;28;20469;-48
2021/04/22 04:26:50;;;;;;;7.20;3.23;;;9.50;60.60;;;;;;5049635;28;20994;-49
2021/04/22 04:29:16;;;;;;;12.60;3.03;;;9.40;60.50;;;;;;5047340;28;20461;-48
2021/04/22 04:31:42;;;;;;;5.40;2.97;;;9.40;60.70;;;;;;5047907;28;20504;-49
2021/04/22 04:34:09;;;;;;;7.20;3.40;;;9.40;60.70;;;;;;5052270;28;20973;-48
2021/04/22 04:36:35;;;;;;;5.97;3.23;;;9.30;60.40;;;;;;5047507;28;20485;-48
2021/04/22 04:39:01;;;;;;;11.07;4.50;;;9.30;60.70;;;;;;5049442;28;20470;-48
2021/04/22 04:41:28;;;;;;;7.23;2.80;;;9.30;60.50;;;;;;5049416;28;20460;-48
2021/04/22 04:43:54;;;;;;;11.13;3.80;;;9.30;60.30;;;;;;5046266;28;21679;-48
2021/04/22 04:46:21;;;;;;;6.00;3.00;;;9.30;60.10;;;;;;5049395;28;20459;-48
2021/04/22 04:48:47;;;;;;;9.07;3.30;;;9.20;59.90;;;;;;5047770;28;20494;-48
2021/04/22 04:51:14;;;;;;;5.90;2.70;;;9.20;59.60;;;;;;5064746;28;20457;-48
2021/04/22 04:53:41;;;;;;;6.57;2.60;;;9.10;59.60;;;;;;5048247;28;20458;-49
2021/04/22 04:56:07;;;;;;;9.73;3.00;;;9.10;59.90;;;;;;5046345;28;20455;-49
2021/04/22 04:58:35;;;;;;;4.43;2.70;;;9.00;59.80;;;;;;5045198;28;20857;-48
2021/04/22 05:01:02;;;;;;;5.90;2.57;;;9.00;59.60;;;;;;5049141;28;20465;-48
2021/04/22 05:03:28;;;;;;;6.17;2.73;;;9.10;59.80;;;;;;5049604;28;20908;-48
2021/04/22 05:05:55;;;;;;;6.20;2.80;;;9.10;60.00;;;;;;5049950;28;20463;-48
2021/04/22 05:08:21;;;;;;;5.57;2.90;;;9.10;59.90;;;;;;5044930;28;20508;-48
2021/04/22 05:10:47;;;;;;;9.40;2.60;;;9.00;60.10;;;;;;5044820;28;20471;-49
2021/04/22 05:13:13;;;;;;;9.03;3.20;;;8.90;60.20;;;;;;5048208;28;20459;-48
2021/04/22 05:15:39;;;;;;;11.90;3.77;;;9.00;59.50;;;;;;5063496;28;20532;-48
2021/04/22 05:18:06;;;;;;;11.23;3.13;;;9.00;60.00;;;;;;5045296;28;20470;-49
2021/04/22 05:20:32;;;;;;;12.73;3.83;;;9.00;60.00;;;;;;5046752;28;20466;-48
2021/04/22 05:22:59;;;;;;;7.00;2.30;;;9.00;59.50;;;;;;5048930;28;20516;-48
2021/04/22 05:25:25;;;;;;;8.67;2.87;;;8.90;59.60;;;;;;5047879;28;20470;-48
2021/04/22 05:27:52;;;;;;;11.73;3.70;;;8.90;60.00;;;;;;5045137;28;20500;-48
2021/04/22 05:30:18;;;;;;;5.73;2.90;;;8.90;59.80;;;;;;5047063;28;20860;-48
2021/04/22 05:32:45;;;;;;;8.53;2.87;;;8.80;59.80;;;;;;5045495;28;20466;-48
2021/04/22 05:35:13;;;;;;;5.23;2.77;;;8.80;59.70;;;;;;5047380;28;20450;-48
2021/04/22 05:37:49;;;;;;;14.43;3.23;;;8.80;59.80;;;;;;5047850;28;20462;-48
2021/04/22 05:40:16;;;;;;;9.80;3.90;;;8.90;59.50;;;;;;5048670;28;20462;-48
2021/04/22 05:42:42;;;;;;;7.00;3.70;;;8.90;59.20;;;;;;5048363;28;20815;-48
2021/04/22 05:45:13;;;;;;;6.43;2.60;;;8.90;59.10;;;;;;5047926;28;20974;-48
2021/04/22 05:47:39;;;;;;;6.50;2.90;;;8.90;58.60;;;;;;5064461;28;20580;-48
2021/04/22 05:50:06;;;;;;;8.10;3.33;;;8.90;58.20;;;;;;5044269;28;20458;-48
2021/04/22 05:52:32;;;;;;;8.07;3.20;;;8.80;57.90;;;;;;5047311;28;20463;-49
2021/04/22 05:54:58;;;;;;;7.40;3.00;;;8.80;58.10;;;;;;5047451;28;20545;-48
2021/04/22 05:57:24;;;;;;;9.20;3.00;;;8.80;57.70;;;;;;5047592;28;20500;-48
2021/04/22 05:59:51;;;;;;;7.07;2.53;;;8.70;58.00;;;;;;5046486;28;20991;-48
2021/04/22 06:02:20;;;;;;;8.53;3.40;;;8.60;57.60;;;;;;5046797;28;20553;-48
2021/04/22 06:04:46;;;;;;;6.50;2.73;;;8.60;58.40;;;;;;5046252;28;20553;-48
2021/04/22 06:07:12;;;;;;;10.07;3.23;;;8.70;59.20;;;;;;5047774;28;20488;-48
2021/04/22 06:09:39;;;;;;;9.00;3.80;;;8.70;58.80;;;;;;5046440;28;20461;-48
2021/04/22 06:12:06;;;;;;;13.13;4.07;;;8.80;58.60;;;;;;5048995;28;20465;-48
2021/04/22 06:14:33;;;;;;;10.70;2.53;;;8.80;57.80;;;;;;5043593;28;20459;-48
2021/04/22 06:16:59;;;;;;;8.73;3.03;;;8.90;57.70;;;;;;5047103;28;20494;-48
2021/04/22 06:19:26;;;;;;;6.17;2.83;;;8.90;57.40;;;;;;5046622;28;20498;-48
2021/04/22 06:21:52;;;;;;;15.80;3.60;;;8.90;57.90;;;;;;5045622;28;20473;-48
2021/04/22 06:24:18;;;;;;;9.47;3.40;;;9.00;57.20;;;;;;5051142;28;20469;-48
2021/04/22 06:26:45;;;;;;;10.03;3.43;;;9.00;57.30;;;;;;5044631;28;20466;-48
2021/04/22 06:29:11;;;;;;;9.87;4.50;;;9.10;57.50;;;;;;5047486;28;20512;-48
2021/04/22 06:31:38;;;;;;;10.40;3.47;;;9.10;55.90;;;;;;5048132;28;20457;-48
2021/04/22 06:34:05;;;;;;;9.30;3.03;;;9.10;56.10;;;;;;5047449;28;20560;-49
2021/04/22 06:36:31;;;;;;;8.80;2.97;;;9.10;55.90;;;;;;5046897;28;20740;-48
2021/04/22 06:38:58;;;;;;;11.60;3.63;;;9.20;55.90;;;;;;5046614;28;20977;-48
2021/04/22 06:41:24;;;;;;;8.50;3.90;;;9.30;56.20;;;;;;5045637;28;21273;-49
2021/04/22 06:43:51;;;;;;;14.17;2.90;;;9.40;56.80;;;;;;5050940;28;20454;-48
2021/04/22 06:46:17;;;;;;;10.07;3.30;;;9.50;56.20;;;;;;5046168;28;20835;-48
2021/04/22 06:48:44;;;;;;;9.30;3.97;;;9.60;56.00;;;;;;5043935;28;20549;-49
2021/04/22 06:51:10;;;;;;;6.37;4.00;;;9.60;55.40;;;;;;5048887;28;21090;-49
2021/04/22 06:53:37;;;;;;;18.97;5.60;;;9.70;55.90;;;;;;5046560;28;20457;-48
2021/04/22 06:56:04;;;;;;;8.20;4.00;;;9.80;55.70;;;;;;5048239;28;20996;-49
2021/04/22 06:58:30;;;;;;;7.10;3.73;;;9.80;54.50;;;;;;5045973;28;20458;-49
2021/04/22 07:00:57;;;;;;;11.03;4.63;;;9.90;54.10;;;;;;5048486;28;20471;-48
2021/04/22 07:03:23;;;;;;;8.57;3.97;;;10.00;54.40;;;;;;5045835;28;20901;-48
2021/04/22 07:05:50;;;;;;;7.70;3.00;;;10.00;53.60;;;;;;5043641;28;20458;-48
2021/04/22 07:08:16;;;;;;;5.90;3.63;;;10.10;53.40;;;;;;5040668;28;20864;-48
2021/04/22 07:10:43;;;;;;;7.60;2.93;;;10.20;54.00;;;;;;5046112;28;20562;-48
2021/04/22 07:13:11;;;;;;;7.60;3.87;;;10.40;53.10;;;;;;5045689;28;20455;-49
2021/04/22 07:15:38;;;;;;;8.27;2.80;;;10.40;52.10;;;;;;5042867;28;20558;-48
2021/04/22 07:18:06;;;;;;;10.07;3.80;;;10.40;51.80;;;;;;5044745;28;20458;-49
2021/04/22 07:20:33;;;;;;;6.80;3.53;;;10.40;51.40;;;;;;5043370;28;20466;-48
2021/04/22 07:23:00;;;;;;;12.43;3.90;;;10.50;51.40;;;;;;5045259;28;20470;-49
2021/04/22 07:25:33;;;;;;;10.00;3.47;;;10.50;51.40;;;;;;5046046;28;20462;-49
2021/04/22 07:28:05;;;;;;;10.90;5.20;;;10.60;51.00;;;;;;5046954;28;20490;-49
2021/04/22 07:30:31;;;;;;;9.10;3.80;;;10.80;49.20;;;;;;5040940;28;20829;-49
2021/04/22 07:32:58;;;;;;;10.60;4.47;;;10.80;48.80;;;;;;5044352;28;20472;-48
2021/04/22 07:35:25;;;;;;;7.97;3.70;;;10.90;49.10;;;;;;5047682;28;20461;-49
2021/04/22 07:37:51;;;;;;;9.23;4.20;;;11.00;49.40;;;;;;5045624;28;20458;-49
2021/04/22 07:40:21;;;;;;;8.73;4.03;;;11.10;49.40;;;;;;5047129;28;20985;-49
2021/04/22 07:42:48;;;;;;;8.23;4.07;;;11.30;48.90;;;;;;5046788;28;20458;-49
2021/04/22 07:45:17;;;;;;;10.33;4.40;;;11.50;48.80;;;;;;5043718;28;20537;-49
2021/04/22 07:47:44;;;;;;;10.23;4.23;;;11.70;48.30;;;;;;5061261;28;20485;-49
2021/04/22 07:50:12;;;;;;;7.30;3.73;;;11.90;47.90;;;;;;5044532;28;20462;-49
2021/04/22 07:52:39;;;;;;;9.10;4.10;;;12.10;47.30;;;;;;5048050;28;20814;-49
2021/04/22 07:55:08;;;;;;;8.03;4.00;;;12.30;47.10;;;;;;5048489;28;20469;-49
2021/04/22 07:57:35;;;;;;;6.47;3.80;;;12.40;45.70;;;;;;5049904;28;20850;-49
2021/04/22 08:00:07;;;;;;;8.10;4.07;;;12.50;46.10;;;;;;5047559;28;20477;-49
2021/04/22 08:02:38;;;;;;;7.47;3.53;;;12.60;44.70;;;;;;5052337;28;20541;-49
2021/04/22 08:05:06;;;;;;;7.10;3.53;;;12.70;45.70;;;;;;5050806;28;20833;-48
2021/04/22 08:07:33;;;;;;;7.97;3.37;;;12.80;45.60;;;;;;5046883;28;20486;-49
2021/04/22 08:10:00;;;;;;;13.67;4.80;;;12.90;45.30;;;;;;5051827;28;20454;-49
2021/04/22 08:12:26;;;;;;;10.40;3.63;;;13.00;44.60;;;;;;5046384;28;20855;-49
2021/04/22 08:14:58;;;;;;;8.07;4.17;;;13.00;44.30;;;;;;5049964;28;20462;-49
2021/04/22 08:17:25;;;;;;;10.17;3.57;;;13.10;44.20;;;;;;5047634;28;21005;-47
2021/04/22 08:19:52;;;;;;;11.70;3.60;;;13.30;43.90;;;;;;5051418;28;20947;-47
2021/04/22 08:22:18;;;;;;;8.93;4.03;;;13.40;43.20;;;;;;5065885;28;20546;-46
2021/04/22 08:24:45;;;;;;;11.57;4.53;;;13.40;43.70;;;;;;5050594;28;20461;-47
2021/04/22 08:27:11;;;;;;;9.80;4.53;;;13.50;44.30;;;;;;5051150;28;20470;-47
2021/04/22 08:29:37;;;;;;;15.77;4.60;;;13.50;44.60;;;;;;5062867;28;20454;-47
2021/04/22 08:32:06;;;;;;;4.87;3.03;;;13.60;44.60;;;;;;5049872;28;20938;-47
2021/04/22 08:34:33;;;;;;;7.67;4.47;;;13.70;44.40;;;;;;5048968;28;20479;-46
2021/04/22 08:36:59;;;;;;;9.40;4.20;;;13.80;43.70;;;;;;5050573;28;20541;-47
2021/04/22 08:39:26;;;;;;;13.93;3.87;;;13.90;43.40;;;;;;5053401;28;20450;-47
2021/04/22 08:41:52;;;;;;;9.30;3.90;;;13.90;43.50;;;;;;5052386;28;20814;-47
2021/04/22 08:44:20;;;;;;;8.83;3.60;;;13.90;43.50;;;;;;5064780;28;20461;-46
2021/04/22 08:46:47;;;;;;;11.60;3.37;;;13.90;42.40;;;;;;5051552;28;20446;-47
2021/04/22 08:49:15;;;;;;;7.07;3.27;;;14.00;42.80;;;;;;5052164;28;20492;-47
2021/04/22 08:51:41;;;;;;;8.03;3.30;;;14.10;42.40;;;;;;5065339;28;22491;-47
2021/04/22 08:54:08;;;;;;;9.97;4.47;;;14.20;41.90;;;;;;5050123;28;20542;-46
2021/04/22 08:56:37;;;;;;;6.77;3.33;;;14.40;41.60;;;;;;5047960;28;20541;-46
2021/04/22 08:59:05;;;;;;;13.30;3.80;;;14.70;41.40;;;;;;5050018;28;20502;-46
2021/04/22 09:01:32;;;;;;;12.73;4.33;;;15.10;41.20;;;;;;5047505;28;20985;-47
2021/04/22 09:04:05;;;;;;;8.50;3.90;;;15.40;41.10;;;;;;5049658;28;20473;-47
2021/04/22 09:06:35;;;;;;;14.30;4.83;;;15.70;40.20;;;;;;5046218;28;20466;-47
2021/04/22 09:09:04;;;;;;;6.43;3.20;;;16.00;40.10;;;;;;5046265;28;21010;-47
2021/04/22 09:11:31;;;;;;;10.70;4.17;;;16.20;39.20;;;;;;5047437;28;20888;-47
2021/04/22 09:13:57;;;;;;;15.97;5.17;;;16.40;38.40;;;;;;5049447;28;20458;-46
2021/04/22 09:16:29;;;;;;;8.40;3.83;;;16.40;38.60;;;;;;5047087;28;20490;-47
2021/04/22 09:19:07;;;;;;;6.53;3.53;;;16.60;38.20;;;;;;5049853;28;20466;-46
2021/04/22 09:21:38;;;;;;;7.13;4.20;;;16.80;38.20;;;;;;5048172;28;20470;-47
2021/04/22 09:24:16;;;;;;;6.17;3.00;;;16.90;38.00;;;;;;5050570;28;20453;-47
2021/04/22 09:26:54;;;;;;;10.73;4.23;;;17.00;37.40;;;;;;5044661;28;20458;-47
2021/04/22 09:29:41;;;;;;;13.63;4.33;;;17.10;37.20;;;;;;5047142;28;20442;-47
2021/04/22 09:32:13;;;;;;;8.13;3.50;;;17.30;37.30;;;;;;5047619;28;20466;-46
2021/04/22 09:34:54;;;;;;;6.33;3.50;;;17.50;36.00;;;;;;5050511;28;20438;-47
2021/04/22 09:37:24;;;;;;;14.00;3.90;;;17.80;36.30;;;;;;5044320;28;20455;-47
2021/04/22 09:39:51;;;;;;;13.57;4.03;;;18.00;35.30;;;;;;5048578;28;20541;-46
2021/04/22 09:42:18;;;;;;;13.50;3.83;;;18.50;34.90;;;;;;5049142;28;20549;-47
2021/04/22 09:44:49;;;;;;;4.60;3.23;;;18.80;34.10;;;;;;5048330;28;20828;-47
2021/04/22 09:47:22;;;;;;;8.33;3.47;;;19.20;34.70;;;;;;5051483;28;20512;-47
2021/04/22 09:50:01;;;;;;;10.37;3.67;;;19.50;33.40;;;;;;5046860;28;21014;-47
2021/04/22 09:52:40;;;;;;;11.10;4.57;;;19.80;32.60;;;;;;5046482;28;20501;-47
2021/04/22 09:55:12;;;;;;;12.40;3.93;;;20.00;32.00;;;;;;5050343;28;20821;-47
2021/04/22 09:57:39;;;;;;;8.23;3.50;;;20.10;32.10;;;;;;5046901;28;21100;-47
2021/04/22 10:00:18;;;;;;;7.53;3.40;;;20.00;31.90;;;;;;5051977;28;20450;-47
2021/04/22 10:02:53;;;;;;;8.70;4.20;;;20.00;32.20;;;;;;5050687;28;20446;-47
2021/04/22 10:05:25;;;;;;;12.27;3.20;;;19.90;32.50;;;;;;5046048;28;20471;-47
2021/04/22 10:08:02;;;;;;;9.73;3.87;;;19.90;32.10;;;;;;5050287;28;20486;-47
2021/04/22 10:10:28;;;;;;;7.67;3.20;;;20.00;31.00;;;;;;5065665;28;20458;-47
2021/04/22 10:13:08;;;;;;;7.37;3.83;;;20.10;31.00;;;;;;5063951;28;20851;-47
2021/04/22 10:15:35;;;;;;;8.00;3.60;;;20.30;31.00;;;;;;5042730;28;20505;-47
2021/04/22 10:18:07;;;;;;;10.27;3.63;;;20.60;31.30;;;;;;5047748;28;20853;-47
2021/04/22 10:20:37;;;;;;;8.20;3.73;;;20.90;31.20;;;;;;5046768;28;20489;-47
2021/04/22 10:23:11;;;;;;;7.17;3.53;;;21.00;31.50;;;;;;5047871;28;20477;-47
2021/04/22 10:25:44;;;;;;;8.90;3.70;;;21.00;29.70;;;;;;5049908;28;20473;-47
2021/04/22 10:28:13;;;;;;;12.40;3.63;;;21.00;30.00;;;;;;5049527;28;20490;-47
2021/04/22 10:30:42;;;;;;;7.20;3.53;;;20.90;30.10;;;;;;5048211;28;20462;-47
2021/04/22 10:33:09;;;;;;;9.60;2.90;;;20.80;30.10;;;;;;5047363;28;20829;-47
2021/04/22 10:35:38;;;;;;;11.87;3.50;;;20.70;29.40;;;;;;5048051;28;20458;-47
2021/04/22 10:38:05;;;;;;;6.80;3.17;;;20.60;29.50;;;;;;5045519;28;20521;-47
2021/04/22 10:40:37;;;;;;;8.57;3.40;;;20.50;29.80;;;;;;5043845;28;20463;-47
2021/04/22 10:43:05;;;;;;;6.53;3.73;;;20.40;29.40;;;;;;5046602;28;20485;-47
2021/04/22 10:45:34;;;;;;;7.27;3.30;;;20.40;29.50;;;;;;5046166;28;20451;-47
2021/04/22 10:48:04;;;;;;;7.57;3.03;;;20.20;29.60;;;;;;5049164;28;20852;-47
2021/04/22 10:50:39;;;;;;;7.63;3.30;;;19.90;29.90;;;;;;5050369;28;20477;-47
2021/04/22 10:53:11;;;;;;;10.13;3.60;;;19.70;30.30;;;;;;5048276;28;21488;-48
2021/04/22 10:55:40;;;;;;;4.77;3.00;;;19.70;30.60;;;;;;5048084;28;20447;-48
2021/04/22 10:58:18;;;;;;;9.33;3.20;;;19.50;30.10;;;;;;5049242;28;21040;-48
2021/04/22 11:01:00;;;;;;;5.40;2.67;;;19.50;30.10;;;;;;5046720;28;20472;-48
2021/04/22 11:03:29;;;;;;;6.90;3.20;;;19.40;29.70;;;;;;5046921;28;20777;-48
2021/04/22 11:05:59;;;;;;;6.07;3.37;;;19.40;30.00;;;;;;5043592;28;20471;-48
2021/04/22 11:08:34;;;;;;;9.30;3.87;;;19.20;30.40;;;;;;5044856;28;20718;-48
2021/04/22 11:11:02;;;;;;;9.17;3.40;;;19.00;30.10;;;;;;5047669;28;20458;-48
2021/04/22 11:13:31;;;;;;;6.67;3.80;;;18.80;31.50;;;;;;5047664;28;20477;-48
2021/04/22 11:15:59;;;;;;;8.50;4.30;;;18.70;31.70;;;;;;5045296;28;20480;-48
2021/04/22 11:18:48;;;;;;;10.33;3.37;;;18.70;31.80;;;;;;5047878;28;20457;-48
2021/04/22 11:21:31;;;;;;;6.73;3.27;;;18.70;32.00;;;;;;5048916;28;20459;-48
2021/04/22 11:23:59;;;;;;;7.83;3.37;;;18.60;31.30;;;;;;5045439;28;20470;-48
2021/04/22 11:26:36;;;;;;;5.77;3.23;;;18.50;31.60;;;;;;5044828;28;20871;-48
2021/04/22 11:29:12;;;;;;;9.40;3.67;;;18.40;32.30;;;;;;5049306;28;20585;-48
2021/04/22 11:31:53;;;;;;;7.97;2.80;;;18.30;32.20;;;;;;5045939;28;20458;-48
2021/04/22 11:34:31;;;;;;;6.67;3.10;;;18.20;32.70;;;;;;5047680;28;20451;-48
2021/04/22 11:36:58;;;;;;;6.40;3.60;;;18.20;32.00;;;;;;5046993;28;20442;-48
2021/04/22 11:39:35;;;;;;;8.10;3.20;;;18.30;31.90;;;;;;5049683;28;20554;-48
2021/04/22 11:42:02;;;;;;;5.93;3.13;;;18.50;31.70;;;;;;5044244;28;20454;-48
2021/04/22 11:44:50;;;;;;;6.60;3.73;;;18.60;31.60;;;;;;5044580;28;20911;-48
2021/04/22 11:47:32;;;;;;;8.20;3.10;;;18.60;31.70;;;;;;5045632;28;20457;-48
2021/04/22 11:50:15;;;;;;;6.20;4.40;;;18.60;33.00;;;;;;5044674;28;20451;-48
2021/04/22 11:52:57;;;;;;;8.23;3.50;;;18.70;33.10;;;;;;5046047;28;20535;-48
2021/04/22 11:55:29;;;;;;;5.80;2.70;;;18.70;31.50;;;;;;5046464;28;20939;-48
2021/04/22 11:58:11;;;;;;;11.33;3.57;;;18.80;31.50;;;;;;5011200;28;20467;-48
2021/04/22 12:00:50;;;;;;;10.80;4.00;;;18.80;31.60;;;;;;5047735;28;20834;-48
2021/04/22 12:03:24;;;;;;;7.67;4.30;;;18.90;30.50;;;;;;5042339;28;20469;-48
2021/04/22 12:05:51;;;;;;;7.20;2.93;;;18.80;30.60;;;;;;5047252;28;20493;-48
2021/04/22 12:08:18;;;;;;;9.40;3.23;;;18.80;31.40;;;;;;5046432;28;20486;-48
2021/04/22 12:10:48;;;;;;;10.00;4.23;;;18.90;31.60;;;;;;5043575;28;20469;-48
2021/04/22 12:13:19;;;;;;;5.37;2.90;;;18.90;30.90;;;;;;5049738;28;20545;-48
2021/04/22 12:15:48;;;;;;;6.77;3.10;;;18.90;31.80;;;;;;5042350;28;20493;-49
2021/04/22 12:18:26;;;;;;;5.83;3.17;;;19.00;30.10;;;;;;5044820;28;20459;-48
2021/04/22 12:21:09;;;;;;;7.27;3.33;;;18.90;28.60;;;;;;5046830;28;20465;-49
2021/04/22 12:23:40;;;;;;;6.33;3.30;;;18.80;29.00;;;;;;5046972;28;20557;-48
2021/04/22 12:26:26;;;;;;;7.43;3.80;;;18.80;29.10;;;;;;5045708;28;20515;-47
2021/04/22 12:29:11;;;;;;;5.30;3.00;;;18.90;31.30;;;;;;5046353;28;20485;-46
2021/04/22 12:31:44;;;;;;;9.27;3.20;;;19.00;29.80;;;;;;5046211;28;20985;-47
2021/04/22 12:34:20;;;;;;;7.40;2.93;;;19.00;29.00;;;;;;5049369;28;20458;-47
2021/04/22 12:36:55;;;;;;;9.57;3.57;;;19.10;29.40;;;;;;5046852;28;20459;-47
2021/04/22 12:39:46;;;;;;;4.53;2.90;;;19.10;30.00;;;;;;5050461;28;20461;-47
2021/04/22 12:42:18;;;;;;;7.30;3.17;;;19.20;29.70;;;;;;5047894;28;20463;-48
2021/04/22 12:45:06;;;;;;;9.83;3.50;;;19.20;29.60;;;;;;5046795;28;20446;-47
2021/04/22 12:47:42;;;;;;;6.03;3.30;;;19.20;29.80;;;;;;5048637;28;20494;-52
2021/04/22 12:50:14;;;;;;;6.37;2.90;;;19.20;30.80;;;;;;5063547;28;20455;-47
2021/04/22 12:52:40;;;;;;;6.27;3.00;;;19.30;31.10;;;;;;5049894;28;20533;-47